sensor_id;sensor_type;location;lat;lon;timestamp;pressure;altitude;pressure_sealevel;temperature;humidity
56600;BME280;51832;48.152;11.530;2022-08-18T00:03:44;95145.53;;;23.37;66.05
56600;BME280;51832;48.152;11.530;2022-08-18T00:08:44;95146.75;;;23.00;67.49
56600;BME280;51832;48.152;11.530;2022-08-18T00:13:45;95142.16;;;23.23;66.61
56600;BME280;51832;48.152;11.530;2022-08-18T00:18:45;95146.94;;;23.03;67.35
56600;BME280;51832;48.152;11.530;2022-08-18T00:23:46;95141.25;;;22.60;69.15
56600;BME280;51832;48.152;11.530;2022-08-18T00:28:46;95134.28;;;22.95;68.47
56600;BME280;51832;48.152;11.530;2022-08-18T00:33:46;95150.59;;;22.63;69.34
56600;BME280;51832;48.152;11.530;2022-08-18T00:38:47;95149.16;;;22.43;69.92
56600;BME280;51832;48.152;11.530;2022-08-18T00:43:49;95160.75;;;22.16;70.56
56600;BME280;51832;48.152;11.530;2022-08-18T00:48:50;95137.63;;;22.20;70.23
56600;BME280;51832;48.152;11.530;2022-08-18T00:53:58;95127.13;;;22.46;69.56
56600;BME280;51832;48.152;11.530;2022-08-18T00:59:09;95119.06;;;22.46;69.29
56600;BME280;51832;48.152;11.530;2022-08-18T01:04:16;95149.50;;;22.64;68.59
56600;BME280;51832;48.152;11.530;2022-08-18T01:09:18;95172.13;;;22.36;69.61
56600;BME280;51832;48.152;11.530;2022-08-18T01:14:19;95171.31;;;22.49;69.25
56600;BME280;51832;48.152;11.530;2022-08-18T01:19:19;95151.53;;;22.45;69.46
56600;BME280;51832;48.152;11.530;2022-08-18T01:24:40;95180.00;;;22.18;70.46
56600;BME280;51832;48.152;11.530;2022-08-18T01:30:06;95173.63;;;22.28;70.32
56600;BME280;51832;48.152;11.530;2022-08-18T01:35:11;95169.75;;;21.71;72.36
56600;BME280;51832;48.152;11.530;2022-08-18T01:40:14;95167.03;;;21.98;71.15
56600;BME280;51832;48.152;11.530;2022-08-18T01:45:16;95163.41;;;22.30;70.03
56600;BME280;51832;48.152;11.530;2022-08-18T01:50:17;95150.75;;;21.94;70.50
56600;BME280;51832;48.152;11.530;2022-08-18T01:55:19;95142.13;;;21.97;70.18
56600;BME280;51832;48.152;11.530;2022-08-18T02:00:19;95135.47;;;22.09;69.54
56600;BME280;51832;48.152;11.530;2022-08-18T02:05:39;95149.41;;;21.56;71.32
56600;BME280;51832;48.152;11.530;2022-08-18T02:10:41;95136.91;;;21.24;72.59
56600;BME280;51832;48.152;11.530;2022-08-18T02:15:42;95147.31;;;21.25;72.09
56600;BME280;51832;48.152;11.530;2022-08-18T02:20:42;95145.53;;;21.48;71.51
56600;BME280;51832;48.152;11.530;2022-08-18T02:25:43;95153.25;;;21.36;71.71
56600;BME280;51832;48.152;11.530;2022-08-18T02:30:44;95138.69;;;21.42;71.41
56600;BME280;51832;48.152;11.530;2022-08-18T02:35:52;95140.66;;;21.37;71.27
56600;BME280;51832;48.152;11.530;2022-08-18T02:40:57;95148.91;;;21.40;71.00
56600;BME280;51832;48.152;11.530;2022-08-18T02:45:59;95143.94;;;21.61;70.17
56600;BME280;51832;48.152;11.530;2022-08-18T02:51:09;95122.59;;;21.83;69.37
56600;BME280;51832;48.152;11.530;2022-08-18T02:56:14;95113.22;;;21.72;69.72
56600;BME280;51832;48.152;11.530;2022-08-18T03:01:28;95117.06;;;21.66;69.62
56600;BME280;51832;48.152;11.530;2022-08-18T03:06:29;95121.84;;;21.55;70.29
56600;BME280;51832;48.152;11.530;2022-08-18T03:11:29;95124.31;;;21.52;69.83
56600;BME280;51832;48.152;11.530;2022-08-18T03:16:30;95124.31;;;21.52;70.27
56600;BME280;51832;48.152;11.530;2022-08-18T03:21:32;95116.44;;;21.14;71.20
56600;BME280;51832;48.152;11.530;2022-08-18T03:26:40;95107.97;;;21.26;70.92
56600;BME280;51832;48.152;11.530;2022-08-18T03:31:42;95099.84;;;21.31;70.79
56600;BME280;51832;48.152;11.530;2022-08-18T03:36:44;95083.19;;;21.20;71.35
56600;BME280;51832;48.152;11.530;2022-08-18T03:41:45;95087.56;;;21.44;70.47
56600;BME280;51832;48.152;11.530;2022-08-18T03:46:46;95083.59;;;21.41;70.22
56600;BME280;51832;48.152;11.530;2022-08-18T03:51:47;95091.69;;;21.50;69.82
56600;BME280;51832;48.152;11.530;2022-08-18T03:56:47;95090.22;;;21.57;69.33
56600;BME280;51832;48.152;11.530;2022-08-18T04:01:50;95084.53;;;21.73;68.66
56600;BME280;51832;48.152;11.530;2022-08-18T04:06:57;95105.31;;;22.03;67.16
56600;BME280;51832;48.152;11.530;2022-08-18T04:12:04;95101.19;;;22.19;66.60
56600;BME280;51832;48.152;11.530;2022-08-18T04:17:11;95093.34;;;22.23;66.02
56600;BME280;51832;48.152;11.530;2022-08-18T04:22:11;95067.25;;;22.15;66.64
56600;BME280;51832;48.152;11.530;2022-08-18T04:27:12;95062.41;;;22.61;64.65
56600;BME280;51832;48.152;11.530;2022-08-18T04:32:12;95057.34;;;22.82;63.57
56600;BME280;51832;48.152;11.530;2022-08-18T04:37:14;95063.94;;;22.76;63.62
56600;BME280;51832;48.152;11.530;2022-08-18T04:42:15;95071.72;;;22.64;64.12
56600;BME280;51832;48.152;11.530;2022-08-18T04:47:15;95068.44;;;22.67;64.10
56600;BME280;51832;48.152;11.530;2022-08-18T04:52:15;95062.91;;;22.72;63.88
56600;BME280;51832;48.152;11.530;2022-08-18T04:57:35;95078.84;;;22.91;63.43
56600;BME280;51832;48.152;11.530;2022-08-18T05:02:36;95095.56;;;23.27;62.49
56600;BME280;51832;48.152;11.530;2022-08-18T05:07:42;95095.34;;;23.07;62.96
56600;BME280;51832;48.152;11.530;2022-08-18T05:12:46;95087.97;;;23.21;62.90
56600;BME280;51832;48.152;11.530;2022-08-18T05:17:46;95085.81;;;23.31;62.39
56600;BME280;51832;48.152;11.530;2022-08-18T05:22:47;95091.69;;;23.42;62.35
56600;BME280;51832;48.152;11.530;2022-08-18T05:27:47;95105.38;;;23.23;62.99
56600;BME280;51832;48.152;11.530;2022-08-18T05:32:47;95133.47;;;23.26;62.68
56600;BME280;51832;48.152;11.530;2022-08-18T05:43:12;95134.28;;;23.66;60.93
56600;BME280;51832;48.152;11.530;2022-08-18T05:48:14;95138.91;;;23.43;61.74
56600;BME280;51832;48.152;11.530;2022-08-18T05:53:16;95133.63;;;23.29;62.26
56600;BME280;51832;48.152;11.530;2022-08-18T05:58:29;95148.34;;;23.32;62.72
56600;BME280;51832;48.152;11.530;2022-08-18T06:03:36;95149.63;;;23.34;62.62
56600;BME280;51832;48.152;11.530;2022-08-18T06:08:47;95142.38;;;23.35;62.06
56600;BME280;51832;48.152;11.530;2022-08-18T06:13:50;95161.28;;;23.61;61.64
56600;BME280;51832;48.152;11.530;2022-08-18T06:24:37;95151.47;;;23.25;63.17
56600;BME280;51832;48.152;11.530;2022-08-18T06:35:05;95148.78;;;23.25;62.71
56600;BME280;51832;48.152;11.530;2022-08-18T06:40:10;95144.50;;;23.24;62.98
56600;BME280;51832;48.152;11.530;2022-08-18T06:45:11;95133.84;;;23.11;63.30
56600;BME280;51832;48.152;11.530;2022-08-18T06:50:29;95139.63;;;23.26;63.04
56600;BME280;51832;48.152;11.530;2022-08-18T06:55:36;95138.75;;;23.09;63.45
56600;BME280;51832;48.152;11.530;2022-08-18T07:00:39;95120.91;;;23.13;63.31
56600;BME280;51832;48.152;11.530;2022-08-18T07:11:30;95120.44;;;22.80;65.44
56600;BME280;51832;48.152;11.530;2022-08-18T07:16:33;95120.31;;;22.85;65.82
56600;BME280;51832;48.152;11.530;2022-08-18T07:21:36;95122.59;;;23.00;65.74
56600;BME280;51832;48.152;11.530;2022-08-18T07:27:06;95124.59;;;23.56;64.17
56600;BME280;51832;48.152;11.530;2022-08-18T07:32:12;95109.78;;;23.67;63.48
56600;BME280;51832;48.152;11.530;2022-08-18T07:37:18;95109.38;;;24.08;61.86
56600;BME280;51832;48.152;11.530;2022-08-18T07:47:33;95115.44;;;25.30;57.54
56600;BME280;51832;48.152;11.530;2022-08-18T07:58:08;95114.47;;;25.72;54.97
56600;BME280;51832;48.152;11.530;2022-08-18T08:08:43;95114.41;;;26.10;54.42
56600;BME280;51832;48.152;11.530;2022-08-18T08:24:35;95131.03;;;25.92;53.79
56600;BME280;51832;48.152;11.530;2022-08-18T08:35:15;95116.00;;;25.53;54.84
56600;BME280;51832;48.152;11.530;2022-08-18T08:40:31;95093.38;;;25.74;54.06
56600;BME280;51832;48.152;11.530;2022-08-18T08:45:40;95086.94;;;25.58;55.05
56600;BME280;51832;48.152;11.530;2022-08-18T08:55:52;95083.38;;;26.46;51.93
56600;BME280;51832;48.152;11.530;2022-08-18T09:00:55;95090.13;;;26.52;49.64
56600;BME280;51832;48.152;11.530;2022-08-18T09:11:36;95064.88;;;26.57;47.88
56600;BME280;51832;48.152;11.530;2022-08-18T09:16:59;95065.19;;;26.55;46.60
56600;BME280;51832;48.152;11.530;2022-08-18T09:22:37;95076.50;;;25.86;49.67
56600;BME280;51832;48.152;11.530;2022-08-18T09:27:44;95094.94;;;26.26;48.52
56600;BME280;51832;48.152;11.530;2022-08-18T09:32:56;95074.34;;;26.63;47.89
56600;BME280;51832;48.152;11.530;2022-08-18T09:38:20;95050.50;;;26.98;46.58
56600;BME280;51832;48.152;11.530;2022-08-18T09:44:06;95063.81;;;27.39;44.99
56600;BME280;51832;48.152;11.530;2022-08-18T09:54:25;95057.97;;;27.49;44.56
56600;BME280;51832;48.152;11.530;2022-08-18T10:04:41;95056.72;;;27.95;44.15
56600;BME280;51832;48.152;11.530;2022-08-18T10:09:57;95068.34;;;27.84;44.49
56600;BME280;51832;48.152;11.530;2022-08-18T10:20:39;95084.97;;;28.50;42.51
56600;BME280;51832;48.152;11.530;2022-08-18T10:25:43;95080.81;;;27.88;44.57
56600;BME280;51832;48.152;11.530;2022-08-18T10:31:00;95072.34;;;28.02;43.95
56600;BME280;51832;48.152;11.530;2022-08-18T10:36:01;95081.34;;;28.06;43.25
56600;BME280;51832;48.152;11.530;2022-08-18T10:41:12;95068.84;;;28.26;42.77
56600;BME280;51832;48.152;11.530;2022-08-18T10:46:24;95057.81;;;28.47;41.97
56600;BME280;51832;48.152;11.530;2022-08-18T10:56:46;95049.75;;;28.62;42.01
56600;BME280;51832;48.152;11.530;2022-08-18T11:07:10;95029.66;;;29.39;40.15
56600;BME280;51832;48.152;11.530;2022-08-18T11:12:13;95025.09;;;29.58;39.45
56600;BME280;51832;48.152;11.530;2022-08-18T11:17:34;95006.13;;;29.43;38.96
56600;BME280;51832;48.152;11.530;2022-08-18T11:22:49;95021.25;;;29.28;38.78
56600;BME280;51832;48.152;11.530;2022-08-18T11:27:50;94997.25;;;29.77;38.63
56600;BME280;51832;48.152;11.530;2022-08-18T11:32:50;94984.16;;;29.83;38.68
56600;BME280;51832;48.152;11.530;2022-08-18T11:37:58;94972.00;;;29.92;38.79
56600;BME280;51832;48.152;11.530;2022-08-18T11:48:20;94963.22;;;30.18;37.49
56600;BME280;51832;48.152;11.530;2022-08-18T12:03:53;94903.66;;;29.32;39.59
56600;BME280;51832;48.152;11.530;2022-08-18T12:14:05;94893.06;;;30.39;37.54
56600;BME280;51832;48.152;11.530;2022-08-18T12:19:07;94900.94;;;30.48;37.40
56600;BME280;51832;48.152;11.530;2022-08-18T12:24:16;94914.94;;;30.08;38.11
56600;BME280;51832;48.152;11.530;2022-08-18T12:29:20;94916.38;;;30.21;38.18
56600;BME280;51832;48.152;11.530;2022-08-18T12:34:25;94886.38;;;31.05;36.43
56600;BME280;51832;48.152;11.530;2022-08-18T12:39:27;94909.38;;;30.62;37.39
56600;BME280;51832;48.152;11.530;2022-08-18T12:44:28;94904.94;;;30.31;37.63
56600;BME280;51832;48.152;11.530;2022-08-18T12:49:28;94916.50;;;29.51;39.37
56600;BME280;51832;48.152;11.530;2022-08-18T12:54:30;94927.97;;;30.18;37.79
56600;BME280;51832;48.152;11.530;2022-08-18T12:59:31;94922.66;;;30.48;37.02
56600;BME280;51832;48.152;11.530;2022-08-18T13:04:32;94908.97;;;30.41;37.59
56600;BME280;51832;48.152;11.530;2022-08-18T13:09:35;94912.59;;;31.17;36.61
56600;BME280;51832;48.152;11.530;2022-08-18T13:14:35;94896.28;;;31.43;35.70
56600;BME280;51832;48.152;11.530;2022-08-18T13:19:37;94887.19;;;31.32;36.17
56600;BME280;51832;48.152;11.530;2022-08-18T13:24:38;94870.00;;;30.75;36.34
56600;BME280;51832;48.152;11.530;2022-08-18T13:29:39;94875.91;;;30.35;36.63
56600;BME280;51832;48.152;11.530;2022-08-18T13:34:39;94854.38;;;30.23;36.92
56600;BME280;51832;48.152;11.530;2022-08-18T13:39:40;94863.72;;;30.26;37.21
56600;BME280;51832;48.152;11.530;2022-08-18T13:44:40;94873.00;;;30.02;37.96
56600;BME280;51832;48.152;11.530;2022-08-18T13:49:41;94873.69;;;29.80;38.42
56600;BME280;51832;48.152;11.530;2022-08-18T13:54:41;94867.91;;;30.43;37.06
56600;BME280;51832;48.152;11.530;2022-08-18T13:59:45;94866.34;;;30.42;37.12
56600;BME280;51832;48.152;11.530;2022-08-18T14:04:45;94853.38;;;30.54;37.29
56600;BME280;51832;48.152;11.530;2022-08-18T14:09:47;94833.47;;;30.69;37.04
56600;BME280;51832;48.152;11.530;2022-08-18T14:14:48;94805.88;;;30.45;37.63
56600;BME280;51832;48.152;11.530;2022-08-18T14:19:50;94802.53;;;30.06;38.47
56600;BME280;51832;48.152;11.530;2022-08-18T14:25:10;94795.38;;;29.97;39.03
56600;BME280;51832;48.152;11.530;2022-08-18T14:30:29;94792.81;;;29.85;39.15
56600;BME280;51832;48.152;11.530;2022-08-18T14:35:30;94796.66;;;29.61;39.64
56600;BME280;51832;48.152;11.530;2022-08-18T14:40:31;94788.47;;;29.81;39.24
56600;BME280;51832;48.152;11.530;2022-08-18T14:45:32;94786.06;;;29.37;40.16
56600;BME280;51832;48.152;11.530;2022-08-18T14:50:34;94793.19;;;29.84;39.11
56600;BME280;51832;48.152;11.530;2022-08-18T14:55:35;94785.56;;;29.70;39.31
56600;BME280;51832;48.152;11.530;2022-08-18T15:00:36;94777.31;;;29.63;39.05
56600;BME280;51832;48.152;11.530;2022-08-18T15:05:38;94782.59;;;29.56;39.46
56600;BME280;51832;48.152;11.530;2022-08-18T15:10:38;94771.97;;;29.89;38.54
56600;BME280;51832;48.152;11.530;2022-08-18T15:15:39;94773.28;;;29.76;38.85
56600;BME280;51832;48.152;11.530;2022-08-18T15:20:40;94775.06;;;30.11;38.54
56600;BME280;51832;48.152;11.530;2022-08-18T15:25:59;94780.25;;;29.96;38.94
56600;BME280;51832;48.152;11.530;2022-08-18T15:31:00;94785.72;;;29.77;39.45
56600;BME280;51832;48.152;11.530;2022-08-18T15:36:00;94790.91;;;29.28;40.73
56600;BME280;51832;48.152;11.530;2022-08-18T15:41:03;94790.56;;;29.29;40.53
56600;BME280;51832;48.152;11.530;2022-08-18T15:46:04;94796.69;;;29.26;41.81
56600;BME280;51832;48.152;11.530;2022-08-18T15:51:06;94788.50;;;29.23;41.82
56600;BME280;51832;48.152;11.530;2022-08-18T15:56:12;94768.59;;;29.15;42.61
56600;BME280;51832;48.152;11.530;2022-08-18T16:01:14;94758.53;;;29.35;42.44
56600;BME280;51832;48.152;11.530;2022-08-18T16:06:18;94746.22;;;29.18;42.51
56600;BME280;51832;48.152;11.530;2022-08-18T16:11:19;94746.34;;;29.25;42.58
56600;BME280;51832;48.152;11.530;2022-08-18T16:16:22;94738.75;;;29.50;41.75
56600;BME280;51832;48.152;11.530;2022-08-18T16:21:22;94740.38;;;29.35;41.70
56600;BME280;51832;48.152;11.530;2022-08-18T16:26:23;94752.53;;;29.26;41.74
56600;BME280;51832;48.152;11.530;2022-08-18T16:31:24;94751.91;;;29.32;41.34
56600;BME280;51832;48.152;11.530;2022-08-18T16:36:25;94758.41;;;29.47;41.32
56600;BME280;51832;48.152;11.530;2022-08-18T16:41:26;94758.75;;;29.26;41.90
56600;BME280;51832;48.152;11.530;2022-08-18T16:46:27;94749.69;;;29.19;42.85
56600;BME280;51832;48.152;11.530;2022-08-18T16:51:27;94761.94;;;29.13;43.15
56600;BME280;51832;48.152;11.530;2022-08-18T16:56:30;94760.81;;;29.14;43.46
56600;BME280;51832;48.152;11.530;2022-08-18T17:01:34;94751.81;;;28.90;44.23
56600;BME280;51832;48.152;11.530;2022-08-18T17:06:57;94752.88;;;28.70;45.20
56600;BME280;51832;48.152;11.530;2022-08-18T17:12:00;94759.00;;;28.32;46.96
56600;BME280;51832;48.152;11.530;2022-08-18T17:17:03;94772.56;;;27.88;47.74
56600;BME280;51832;48.152;11.530;2022-08-18T17:22:05;94801.06;;;27.42;50.29
56600;BME280;51832;48.152;11.530;2022-08-18T17:27:16;94856.03;;;26.25;57.46
56600;BME280;51832;48.152;11.530;2022-08-18T17:32:26;94863.69;;;24.09;67.67
56600;BME280;51832;48.152;11.530;2022-08-18T17:37:28;94871.84;;;23.58;69.71
56600;BME280;51832;48.152;11.530;2022-08-18T17:42:29;94876.72;;;23.30;71.98
56600;BME280;51832;48.152;11.530;2022-08-18T17:47:37;94879.66;;;24.06;70.58
56600;BME280;51832;48.152;11.530;2022-08-18T17:52:43;94886.63;;;23.98;71.31
56600;BME280;51832;48.152;11.530;2022-08-18T17:57:54;94874.53;;;23.23;74.17
56600;BME280;51832;48.152;11.530;2022-08-18T18:02:56;94881.56;;;22.45;77.76
56600;BME280;51832;48.152;11.530;2022-08-18T18:07:58;94887.44;;;21.94;76.93
56600;BME280;51832;48.152;11.530;2022-08-18T18:18:35;94906.56;;;22.01;73.97
56600;BME280;51832;48.152;11.530;2022-08-18T18:23:46;94906.22;;;21.72;74.68
56600;BME280;51832;48.152;11.530;2022-08-18T18:28:48;94902.66;;;21.62;75.05
56600;BME280;51832;48.152;11.530;2022-08-18T18:34:02;94914.47;;;21.39;76.37
56600;BME280;51832;48.152;11.530;2022-08-18T18:39:09;94919.22;;;21.64;76.02
56600;BME280;51832;48.152;11.530;2022-08-18T18:44:14;94922.88;;;21.69;75.39
56600;BME280;51832;48.152;11.530;2022-08-18T18:49:26;94917.50;;;21.46;77.08
56600;BME280;51832;48.152;11.530;2022-08-18T18:54:44;94921.78;;;21.70;75.20
56600;BME280;51832;48.152;11.530;2022-08-18T19:05:48;94919.78;;;21.75;73.33
56600;BME280;51832;48.152;11.530;2022-08-18T19:15:59;94957.88;;;21.94;71.88
56600;BME280;51832;48.152;11.530;2022-08-18T19:21:06;94986.88;;;22.68;69.55
56600;BME280;51832;48.152;11.530;2022-08-18T19:26:09;94991.28;;;22.42;70.17
56600;BME280;51832;48.152;11.530;2022-08-18T19:31:12;95011.25;;;22.58;69.90
56600;BME280;51832;48.152;11.530;2022-08-18T19:36:23;95020.66;;;22.47;70.57
56600;BME280;51832;48.152;11.530;2022-08-18T19:46:45;95017.63;;;22.17;71.36
56600;BME280;51832;48.152;11.530;2022-08-18T19:51:49;95011.63;;;22.12;71.21
56600;BME280;51832;48.152;11.530;2022-08-18T20:18:30;95020.19;;;21.64;73.38
56600;BME280;51832;48.152;11.530;2022-08-18T20:23:35;94994.19;;;22.01;73.16
56600;BME280;51832;48.152;11.530;2022-08-18T20:28:41;94965.19;;;21.58;75.12
56600;BME280;51832;48.152;11.530;2022-08-18T20:34:08;94952.81;;;21.35;76.68
56600;BME280;51832;48.152;11.530;2022-08-18T20:39:32;94965.91;;;21.36;77.01
56600;BME280;51832;48.152;11.530;2022-08-18T20:49:57;95017.53;;;21.50;77.65
56600;BME280;51832;48.152;11.530;2022-08-18T20:55:28;95028.81;;;21.61;77.27
56600;BME280;51832;48.152;11.530;2022-08-18T21:00:34;95051.44;;;21.55;77.58
56600;BME280;51832;48.152;11.530;2022-08-18T21:05:38;95073.34;;;21.57;78.16
56600;BME280;51832;48.152;11.530;2022-08-18T21:15:51;95070.94;;;21.83;77.32
56600;BME280;51832;48.152;11.530;2022-08-18T21:20:54;95065.13;;;22.03;76.03
56600;BME280;51832;48.152;11.530;2022-08-18T21:26:07;95077.91;;;21.70;77.39
56600;BME280;51832;48.152;11.530;2022-08-18T21:31:33;95054.31;;;21.58;78.57
56600;BME280;51832;48.152;11.530;2022-08-18T21:36:36;95038.53;;;21.71;77.72
56600;BME280;51832;48.152;11.530;2022-08-18T21:41:43;95030.63;;;21.52;78.66
56600;BME280;51832;48.152;11.530;2022-08-18T21:46:46;95022.53;;;21.43;79.24
56600;BME280;51832;48.152;11.530;2022-08-18T21:51:48;95008.88;;;21.67;78.17
56600;BME280;51832;48.152;11.530;2022-08-18T21:57:18;95019.69;;;21.62;78.42
56600;BME280;51832;48.152;11.530;2022-08-18T22:02:19;95037.47;;;21.58;78.65
56600;BME280;51832;48.152;11.530;2022-08-18T22:07:20;95047.59;;;21.34;79.88
56600;BME280;51832;48.152;11.530;2022-08-18T22:12:31;95042.03;;;21.44;79.89
56600;BME280;51832;48.152;11.530;2022-08-18T22:17:59;95051.56;;;21.22;80.88
56600;BME280;51832;48.152;11.530;2022-08-18T22:28:31;95037.78;;;21.43;79.67
56600;BME280;51832;48.152;11.530;2022-08-18T22:33:32;95029.94;;;21.46;79.09
56600;BME280;51832;48.152;11.530;2022-08-18T22:38:33;95012.09;;;21.42;79.25
56600;BME280;51832;48.152;11.530;2022-08-18T22:43:34;94983.28;;;21.25;78.90
56600;BME280;51832;48.152;11.530;2022-08-18T22:48:36;94982.91;;;20.63;80.66
56600;BME280;51832;48.152;11.530;2022-08-18T22:53:37;94953.88;;;20.56;80.80
56600;BME280;51832;48.152;11.530;2022-08-18T22:58:37;94945.25;;;20.73;79.95
56600;BME280;51832;48.152;11.530;2022-08-18T23:03:39;94938.63;;;20.57;80.34
56600;BME280;51832;48.152;11.530;2022-08-18T23:08:39;94929.91;;;20.51;80.55
56600;BME280;51832;48.152;11.530;2022-08-18T23:13:44;94934.22;;;20.34;81.11
56600;BME280;51832;48.152;11.530;2022-08-18T23:18:44;94933.56;;;20.55;80.21
56600;BME280;51832;48.152;11.530;2022-08-18T23:23:45;94930.00;;;21.01;78.09
56600;BME280;51832;48.152;11.530;2022-08-18T23:28:45;94943.34;;;21.15;77.23
56600;BME280;51832;48.152;11.530;2022-08-18T23:33:46;94968.22;;;21.15;76.93
56600;BME280;51832;48.152;11.530;2022-08-18T23:38:46;94969.81;;;21.30;76.61
56600;BME280;51832;48.152;11.530;2022-08-18T23:43:48;94985.84;;;21.16;76.71
56600;BME280;51832;48.152;11.530;2022-08-18T23:48:50;95016.75;;;21.36;76.21
56600;BME280;51832;48.152;11.530;2022-08-18T23:53:55;95040.63;;;20.91;77.47
56600;BME280;51832;48.152;11.530;2022-08-18T23:58:59;95042.03;;;20.89;78.16
